Terminal Aerodrome Forecast
Issued by NWS

Home | Current Version | Previous Version | Text Only | Print | Product List | Glossary On
Versions: 1 2 3 4 5 6 7 8 9 10 11 12 13 14 15 16 17
000
FTUS45 KVEF 201438 AAA
TAFBIH
TAF AMD
KBIH 201438Z 2015/2112 35006KT P6SM -RA SCT020 SCT040 OVC070
      TEMPO 2015/2019 BKN040
     FM201900 16015G22KT P6SM -RA SCT020 BKN040 OVC060=

USA.gov is the U.S. government's official web portal to all federal, state and local government web resources and services.